Time;durP1;ratioP1;P1;durP2;ratioP2;P2;SDS_P1;SDS_P2;PMS_P1;PMS_P2;Temp;Humidity;BMP_temperature;BMP_pressure;BME280_temperature;BME280_humidity;BME280_pressure;Samples;Min_cycle;Max_cycle;Signal;HPM_P1;HPM_P2
2024/03/09 00:04:51;;;;;;;5.72;3.75;;;;;;;;;;10409680;28;20037;-48
2024/03/09 00:09:51;;;;;;;6.63;3.85;;;;;;;;;;10409691;28;20029;-49
2024/03/09 00:14:52;;;;;;;9.07;4.00;;;;;;;;;;10409521;28;20032;-53
2024/03/09 00:19:53;;;;;;;12.15;3.70;;;;;;;;;;10409810;28;20072;-54
2024/03/09 00:24:54;;;;;;;7.43;3.70;;;;;;;;;;10409540;28;20489;-53
2024/03/09 00:29:55;;;;;;;7.97;3.80;;;;;;;;;;10409578;28;20493;-54
2024/03/09 00:34:55;;;;;;;7.75;3.67;;;;;;;;;;10408775;28;20030;-52
2024/03/09 00:39:56;;;;;;;8.35;3.67;;;;;;;;;;10408591;28;20028;-53
2024/03/09 00:44:56;;;;;;;4.25;3.65;;;;;;;;;;10408744;28;20087;-54
2024/03/09 00:49:57;;;;;;;7.03;3.72;;;;;;;;;;10407579;28;20033;-53
2024/03/09 00:54:58;;;;;;;6.15;3.80;;;;;;;;;;10407936;28;20030;-52
2024/03/09 01:00:00;;;;;;;4.40;3.10;;;;;;;;;;10408018;28;20384;-52
2024/03/09 01:05:01;;;;;;;4.68;3.58;;;;;;;;;;10407605;28;20393;-53
2024/03/09 01:10:01;;;;;;;4.13;3.03;;;;;;;;;;10408041;28;20030;-52
2024/03/09 01:15:06;;;;;;;5.70;3.83;;;;;;;;;;10408089;28;20416;-53
2024/03/09 01:20:09;;;;;;;6.13;3.42;;;;;;;;;;10407340;28;20074;-54
2024/03/09 01:25:11;;;;;;;6.05;3.55;;;;;;;;;;10407562;28;20370;-52
2024/03/09 01:30:11;;;;;;;4.45;3.05;;;;;;;;;;10407729;28;20025;-53
2024/03/09 01:35:12;;;;;;;4.80;3.10;;;;;;;;;;10404927;28;20033;-51
2024/03/09 01:40:13;;;;;;;4.55;3.10;;;;;;;;;;10407039;28;20029;-53
2024/03/09 01:45:15;;;;;;;4.82;3.35;;;;;;;;;;10407095;28;20072;-53
2024/03/09 01:50:15;;;;;;;5.05;3.30;;;;;;;;;;10407652;28;20025;-53
2024/03/09 01:55:18;;;;;;;6.10;3.38;;;;;;;;;;10407439;28;20033;-53
2024/03/09 02:00:20;;;;;;;7.05;3.53;;;;;;;;;;10408011;28;20025;-53
2024/03/09 02:05:22;;;;;;;8.57;3.03;;;;;;;;;;10413404;28;20050;-55
2024/03/09 02:10:22;;;;;;;4.38;3.17;;;;;;;;;;10413245;28;20060;-54
2024/03/09 02:15:29;;;;;;;4.15;3.00;;;;;;;;;;10414007;28;20037;-53
2024/03/09 02:20:31;;;;;;;3.65;2.83;;;;;;;;;;10413953;28;20444;-54
2024/03/09 02:25:31;;;;;;;4.68;3.10;;;;;;;;;;10414204;28;20024;-53
2024/03/09 02:30:33;;;;;;;6.68;3.22;;;;;;;;;;10412488;28;20036;-53
2024/03/09 02:35:33;;;;;;;3.08;2.65;;;;;;;;;;10413823;28;20060;-53
2024/03/09 02:40:34;;;;;;;3.22;2.83;;;;;;;;;;10413191;28;20104;-52
2024/03/09 02:45:34;;;;;;;3.75;2.78;;;;;;;;;;10413514;28;20183;-53
2024/03/09 02:50:35;;;;;;;4.18;3.08;;;;;;;;;;10412912;28;20032;-53
2024/03/09 02:55:36;;;;;;;3.53;2.83;;;;;;;;;;10413430;28;20430;-53
2024/03/09 03:00:37;;;;;;;3.35;2.88;;;;;;;;;;10412405;28;20033;-53
2024/03/09 03:05:41;;;;;;;3.22;2.63;;;;;;;;;;10412040;28;20052;-54
2024/03/09 03:10:42;;;;;;;3.00;2.65;;;;;;;;;;10412183;28;20117;-51
2024/03/09 03:15:43;;;;;;;3.42;2.75;;;;;;;;;;10411762;28;20032;-53
2024/03/09 03:20:43;;;;;;;3.55;2.65;;;;;;;;;;10412243;28;20033;-49
2024/03/09 03:25:44;;;;;;;3.13;2.83;;;;;;;;;;10412026;28;20465;-53
2024/03/09 03:30:45;;;;;;;2.50;2.30;;;;;;;;;;10411991;28;20487;-53
2024/03/09 03:35:46;;;;;;;2.78;2.53;;;;;;;;;;10411309;28;20036;-53
2024/03/09 03:40:46;;;;;;;2.92;2.35;;;;;;;;;;10411505;28;20340;-51
2024/03/09 03:45:47;;;;;;;3.05;2.60;;;;;;;;;;10410566;28;20260;-49
2024/03/09 03:50:48;;;;;;;3.45;2.60;;;;;;;;;;10410605;28;20029;-53
2024/03/09 03:55:48;;;;;;;2.80;2.60;;;;;;;;;;10410217;28;20026;-52
2024/03/09 04:00:49;;;;;;;3.97;2.85;;;;;;;;;;10410111;28;20036;-53
2024/03/09 04:05:53;;;;;;;2.80;2.60;;;;;;;;;;10409678;28;20132;-52
2024/03/09 04:10:55;;;;;;;2.30;2.10;;;;;;;;;;10409612;28;20037;-53
2024/03/09 04:15:55;;;;;;;2.80;2.50;;;;;;;;;;10409982;28;20033;-53
2024/03/09 04:20:57;;;;;;;3.08;2.78;;;;;;;;;;10410303;28;20032;-53
2024/03/09 04:25:57;;;;;;;2.60;2.40;;;;;;;;;;10408139;28;20373;-52
2024/03/09 04:30:58;;;;;;;4.07;2.50;;;;;;;;;;10409048;28;20025;-53
2024/03/09 04:35:59;;;;;;;2.75;2.20;;;;;;;;;;10408569;28;20033;-51
2024/03/09 04:41:00;;;;;;;2.88;2.60;;;;;;;;;;10409180;28;20029;-53
2024/03/09 04:46:00;;;;;;;2.55;2.22;;;;;;;;;;10408488;28;20029;-53
2024/03/09 04:51:01;;;;;;;4.18;2.75;;;;;;;;;;10406875;28;20041;-53
2024/03/09 04:56:01;;;;;;;2.65;2.45;;;;;;;;;;10407914;28;20032;-53
2024/03/09 05:01:02;;;;;;;2.70;2.42;;;;;;;;;;10408161;28;20037;-54
2024/03/09 05:06:02;;;;;;;2.03;1.83;;;;;;;;;;10406554;28;20060;-53
2024/03/09 05:11:03;;;;;;;3.42;2.50;;;;;;;;;;10407934;28;20260;-54
2024/03/09 05:16:04;;;;;;;2.85;2.63;;;;;;;;;;10407691;28;20057;-52
2024/03/09 05:21:05;;;;;;;2.88;2.25;;;;;;;;;;10407153;28;20021;-52
2024/03/09 05:26:06;;;;;;;2.75;2.50;;;;;;;;;;10408684;28;20026;-58
2024/03/09 05:31:26;;;;;;;2.22;2.03;;;;;;;;;;10407830;28;20358;-53
2024/03/09 05:36:27;;;;;;;2.50;2.30;;;;;;;;;;10411750;28;20187;-53
2024/03/09 05:41:27;;;;;;;2.45;2.25;;;;;;;;;;10416013;28;20118;-53
2024/03/09 05:46:29;;;;;;;3.40;2.55;;;;;;;;;;10415229;28;20377;-53
2024/03/09 05:51:31;;;;;;;3.42;2.33;;;;;;;;;;10415194;28;20021;-52
2024/03/09 05:56:31;;;;;;;2.83;2.28;;;;;;;;;;10414915;28;20500;-52
2024/03/09 06:01:32;;;;;;;2.70;2.45;;;;;;;;;;10414769;28;20028;-53
2024/03/09 06:06:32;;;;;;;3.20;2.60;;;;;;;;;;10414602;28;20053;-54
2024/03/09 06:11:34;;;;;;;2.50;2.30;;;;;;;;;;10414161;28;20481;-53
2024/03/09 06:16:35;;;;;;;2.80;2.22;;;;;;;;;;10413962;28;20358;-52
2024/03/09 06:21:36;;;;;;;2.13;1.88;;;;;;;;;;10414402;28;20030;-54
2024/03/09 06:26:36;;;;;;;2.50;2.30;;;;;;;;;;10414288;28;20030;-53
2024/03/09 06:31:37;;;;;;;2.55;2.35;;;;;;;;;;10413597;28;20053;-53
2024/03/09 06:36:38;;;;;;;2.50;2.20;;;;;;;;;;10413866;28;20028;-50
2024/03/09 06:41:40;;;;;;;2.92;2.42;;;;;;;;;;10414159;28;20029;-53
2024/03/09 06:46:40;;;;;;;2.38;2.17;;;;;;;;;;10412360;28;20022;-52
2024/03/09 06:51:41;;;;;;;2.40;2.15;;;;;;;;;;10412860;28;20028;-54
2024/03/09 06:56:41;;;;;;;2.70;2.50;;;;;;;;;;10412512;28;20025;-62
2024/03/09 07:01:42;;;;;;;2.30;2.10;;;;;;;;;;10413422;28;20084;-53
2024/03/09 07:06:43;;;;;;;2.83;2.20;;;;;;;;;;10411753;28;20101;-52
2024/03/09 07:11:43;;;;;;;2.13;1.92;;;;;;;;;;10411958;28;20052;-53
2024/03/09 07:16:46;;;;;;;2.58;2.38;;;;;;;;;;10411862;28;20025;-54
2024/03/09 07:21:47;;;;;;;2.60;2.28;;;;;;;;;;10411520;28;20405;-52
2024/03/09 07:26:48;;;;;;;4.47;2.30;;;;;;;;;;10411363;28;20028;-53
2024/03/09 07:31:49;;;;;;;3.88;1.90;;;;;;;;;;10411055;28;20018;-52
2024/03/09 07:36:49;;;;;;;3.20;2.10;;;;;;;;;;10411618;28;20028;-52
2024/03/09 07:41:50;;;;;;;3.08;2.20;;;;;;;;;;10410858;28;20025;-53
2024/03/09 07:46:53;;;;;;;3.33;2.13;;;;;;;;;;10410513;28;20473;-54
2024/03/09 07:51:56;;;;;;;5.20;2.20;;;;;;;;;;10410856;28;20457;-52
2024/03/09 07:56:56;;;;;;;2.25;2.05;;;;;;;;;;10410288;28;20074;-53
2024/03/09 08:01:58;;;;;;;2.65;2.00;;;;;;;;;;10409717;28;20021;-52
2024/03/09 08:07:00;;;;;;;8.00;2.08;;;;;;;;;;10407221;28;20060;-53
2024/03/09 08:12:02;;;;;;;2.92;2.20;;;;;;;;;;10409679;28;20025;-53
2024/03/09 08:17:04;;;;;;;2.33;2.13;;;;;;;;;;10409305;28;20397;-54
2024/03/09 08:22:05;;;;;;;4.78;2.08;;;;;;;;;;10408768;28;20488;-52
2024/03/09 08:27:06;;;;;;;7.68;2.08;;;;;;;;;;10406538;28;20044;-55
2024/03/09 08:32:09;;;;;;;5.32;2.38;;;;;;;;;;10406391;28;20040;-53
2024/03/09 08:37:10;;;;;;;5.95;2.22;;;;;;;;;;10406763;28;20101;-52
2024/03/09 08:42:11;;;;;;;4.20;2.30;;;;;;;;;;10408997;28;20021;-53
2024/03/09 08:47:12;;;;;;;4.18;2.30;;;;;;;;;;10408518;28;20469;-54
2024/03/09 08:52:13;;;;;;;4.82;2.25;;;;;;;;;;10407251;28;20025;-50
2024/03/09 08:57:13;;;;;;;7.25;3.00;;;;;;;;;;10407149;28;20026;-53
2024/03/09 09:02:18;;;;;;;4.60;2.38;;;;;;;;;;10407921;28;20094;-53
2024/03/09 09:07:18;;;;;;;5.30;2.75;;;;;;;;;;10408126;28;20140;-51
2024/03/09 09:12:19;;;;;;;5.05;2.53;;;;;;;;;;10419174;28;20499;-52
2024/03/09 09:17:20;;;;;;;6.07;2.75;;;;;;;;;;10421538;28;20079;-51
2024/03/09 09:22:22;;;;;;;6.97;2.78;;;;;;;;;;10421670;28;20025;-53
2024/03/09 09:27:26;;;;;;;10.35;2.90;;;;;;;;;;10420983;28;20033;-53
2024/03/09 09:32:27;;;;;;;10.32;2.65;;;;;;;;;;10421627;28;20044;-53
2024/03/09 09:37:27;;;;;;;23.35;2.83;;;;;;;;;;10421993;28;20037;-53
2024/03/09 09:42:32;;;;;;;16.23;3.53;;;;;;;;;;10420785;28;20033;-55
2024/03/09 09:47:33;;;;;;;5.57;2.63;;;;;;;;;;10421477;28;20017;-53
2024/03/09 09:52:36;;;;;;;10.38;3.17;;;;;;;;;;10419461;28;20035;-53
2024/03/09 09:57:37;;;;;;;13.48;2.85;;;;;;;;;;10420301;28;20033;-56
2024/03/09 10:02:38;;;;;;;7.38;3.03;;;;;;;;;;10420381;28;20029;-52
2024/03/09 10:08:01;;;;;;;3.85;2.80;;;;;;;;;;10420557;28;20400;-59
2024/03/09 10:13:09;;;;;;;10.50;3.20;;;;;;;;;;10420880;28;20063;-54
2024/03/09 10:18:13;;;;;;;15.35;3.13;;;;;;;;;;10420770;28;20026;-53
2024/03/09 10:23:17;;;;;;;18.58;3.53;;;;;;;;;;10415870;28;20037;-53
2024/03/09 10:28:19;;;;;;;15.13;2.95;;;;;;;;;;10413026;28;20022;-53
2024/03/09 10:33:22;;;;;;;11.63;3.17;;;;;;;;;;10412840;28;20428;-54
2024/03/09 10:38:22;;;;;;;5.82;2.60;;;;;;;;;;10413387;28;20032;-53
2024/03/09 10:43:23;;;;;;;4.32;2.67;;;;;;;;;;10411713;28;20036;-52
2024/03/09 10:48:27;;;;;;;12.18;2.75;;;;;;;;;;10413055;28;20030;-53
2024/03/09 10:53:54;;;;;;;4.07;2.30;;;;;;;;;;10412628;28;20389;-54
2024/03/09 10:58:57;;;;;;;3.53;2.42;;;;;;;;;;10413443;28;20033;-62
2024/03/09 11:03:59;;;;;;;5.50;2.22;;;;;;;;;;10411777;28;20650;-53
2024/03/09 11:09:03;;;;;;;7.63;2.50;;;;;;;;;;10412663;28;20032;-53
2024/03/09 11:14:05;;;;;;;8.93;2.42;;;;;;;;;;10412353;28;20056;-56
2024/03/09 11:19:13;;;;;;;6.35;2.22;;;;;;;;;;10412379;28;20112;-53
2024/03/09 11:24:15;;;;;;;6.20;2.20;;;;;;;;;;10409763;28;20048;-53
2024/03/09 11:29:17;;;;;;;3.75;2.10;;;;;;;;;;10411156;28;20111;-54
2024/03/09 11:34:23;;;;;;;2.33;1.80;;;;;;;;;;10409985;28;20022;-53
2024/03/09 11:39:31;;;;;;;10.65;2.78;;;;;;;;;;10410650;28;20083;-61
2024/03/09 11:44:43;;;;;;;3.38;1.95;;;;;;;;;;10410621;28;20049;-52
2024/03/09 11:49:44;;;;;;;2.08;1.88;;;;;;;;;;10409606;28;20430;-55
2024/03/09 11:54:48;;;;;;;3.05;2.20;;;;;;;;;;10410238;28;20108;-52
2024/03/09 11:59:50;;;;;;;2.63;1.90;;;;;;;;;;10409894;28;20472;-53
2024/03/09 12:04:57;;;;;;;2.45;1.95;;;;;;;;;;10410003;28;20070;-54
2024/03/09 12:10:00;;;;;;;3.97;1.88;;;;;;;;;;10409976;28;20207;-53
2024/03/09 12:15:01;;;;;;;2.65;1.73;;;;;;;;;;10409384;28;20029;-58
2024/03/09 12:20:04;;;;;;;5.95;1.98;;;;;;;;;;10408375;28;20021;-52
2024/03/09 12:25:09;;;;;;;1.63;1.50;;;;;;;;;;10409034;28;20468;-56
2024/03/09 12:30:10;;;;;;;3.20;1.70;;;;;;;;;;10408988;28;20276;-52
2024/03/09 12:35:13;;;;;;;2.17;1.58;;;;;;;;;;10408208;28;20608;-54
2024/03/09 12:40:18;;;;;;;3.38;1.98;;;;;;;;;;10409553;28;20045;-54
2024/03/09 12:45:24;;;;;;;3.50;1.95;;;;;;;;;;10407911;28;20060;-53
2024/03/09 12:50:25;;;;;;;3.22;1.95;;;;;;;;;;10409191;28;20057;-54
2024/03/09 12:55:28;;;;;;;2.40;1.80;;;;;;;;;;10408919;28;20030;-51
2024/03/09 13:00:28;;;;;;;4.85;2.10;;;;;;;;;;10408196;28;20040;-52
2024/03/09 13:05:33;;;;;;;6.15;2.03;;;;;;;;;;10408061;28;20128;-52
2024/03/09 13:10:36;;;;;;;1.75;1.63;;;;;;;;;;10408102;28;20123;-54
2024/03/09 13:15:37;;;;;;;2.45;1.70;;;;;;;;;;10408300;28;20480;-53
2024/03/09 13:20:40;;;;;;;2.20;1.60;;;;;;;;;;10407831;28;20034;-54
2024/03/09 13:25:43;;;;;;;1.77;1.50;;;;;;;;;;10407579;28;20397;-51
2024/03/09 13:30:43;;;;;;;2.92;1.45;;;;;;;;;;10408469;28;20061;-54
2024/03/09 13:35:44;;;;;;;4.13;1.85;;;;;;;;;;10406740;28;20203;-51
2024/03/09 13:40:45;;;;;;;2.10;1.50;;;;;;;;;;10407451;28;20381;-52
2024/03/09 13:45:50;;;;;;;1.83;1.40;;;;;;;;;;10407600;28;20045;-52
2024/03/09 13:50:50;;;;;;;2.30;1.33;;;;;;;;;;10407026;28;20028;-52
2024/03/09 13:55:51;;;;;;;4.07;1.80;;;;;;;;;;10408746;28;20028;-52
2024/03/09 14:00:52;;;;;;;6.68;1.58;;;;;;;;;;10415357;28;20021;-55
2024/03/09 14:05:52;;;;;;;1.88;1.50;;;;;;;;;;10414385;28;20274;-53
2024/03/09 14:10:57;;;;;;;1.58;1.48;;;;;;;;;;10414635;28;20218;-54
2024/03/09 14:15:57;;;;;;;1.45;1.30;;;;;;;;;;10414314;28;20535;-52
2024/03/09 14:20:58;;;;;;;2.97;1.48;;;;;;;;;;10414881;28;20085;-53
2024/03/09 14:25:59;;;;;;;2.78;1.48;;;;;;;;;;10414571;28;20283;-52
2024/03/09 14:31:00;;;;;;;1.45;1.35;;;;;;;;;;10413797;28;20124;-53
2024/03/09 14:36:07;;;;;;;2.17;1.98;;;;;;;;;;10412245;28;20061;-50
2024/03/09 14:41:11;;;;;;;1.60;1.50;;;;;;;;;;10412884;28;20292;-53
2024/03/09 14:46:12;;;;;;;2.97;1.23;;;;;;;;;;10412925;28;20049;-54
2024/03/09 14:51:14;;;;;;;2.42;1.40;;;;;;;;;;10412857;28;20057;-55
2024/03/09 14:56:14;;;;;;;1.83;1.30;;;;;;;;;;10412791;28;20033;-53
2024/03/09 15:01:17;;;;;;;2.35;1.67;;;;;;;;;;10412348;28;20432;-52
2024/03/09 15:06:20;;;;;;;2.67;1.50;;;;;;;;;;10411853;28;20103;-54
2024/03/09 15:11:21;;;;;;;2.53;1.52;;;;;;;;;;10412152;28;20059;-53
2024/03/09 15:16:24;;;;;;;2.58;1.67;;;;;;;;;;10412011;28;20029;-55
2024/03/09 15:21:26;;;;;;;1.40;1.30;;;;;;;;;;10412231;28;20071;-52
2024/03/09 15:26:28;;;;;;;1.60;1.50;;;;;;;;;;10411691;28;20104;-54
2024/03/09 15:31:29;;;;;;;1.33;1.23;;;;;;;;;;10411814;28;20033;-59
2024/03/09 15:36:29;;;;;;;1.92;1.35;;;;;;;;;;10411319;28;20489;-52
2024/03/09 15:41:30;;;;;;;1.65;1.30;;;;;;;;;;10410927;28;20033;-53
2024/03/09 15:46:35;;;;;;;2.47;1.27;;;;;;;;;;10411144;28;20040;-54
2024/03/09 15:51:37;;;;;;;3.38;1.30;;;;;;;;;;10410510;28;20385;-52
2024/03/09 15:56:40;;;;;;;2.25;1.40;;;;;;;;;;10410577;28;20033;-53
2024/03/09 16:01:41;;;;;;;1.42;1.33;;;;;;;;;;10410581;28;20080;-53
2024/03/09 16:06:44;;;;;;;1.33;1.20;;;;;;;;;;10409842;28;20455;-51
2024/03/09 16:11:44;;;;;;;1.35;1.25;;;;;;;;;;10409818;28;20029;-55
2024/03/09 16:16:45;;;;;;;2.28;1.45;;;;;;;;;;10409472;28;20385;-53
2024/03/09 16:21:46;;;;;;;1.30;1.23;;;;;;;;;;10409324;28;20032;-54
2024/03/09 16:26:47;;;;;;;2.50;1.20;;;;;;;;;;10409271;28;20030;-52
2024/03/09 16:31:48;;;;;;;1.40;1.30;;;;;;;;;;10408835;28;20397;-52
2024/03/09 16:36:49;;;;;;;2.85;1.40;;;;;;;;;;10408993;28;20021;-54
2024/03/09 16:41:50;;;;;;;1.23;1.15;;;;;;;;;;10409228;28;20056;-53
2024/03/09 16:46:52;;;;;;;1.50;0.95;;;;;;;;;;10408519;28;20017;-53
2024/03/09 16:51:53;;;;;;;1.30;1.00;;;;;;;;;;10408792;28;20021;-52
2024/03/09 16:56:56;;;;;;;1.30;1.20;;;;;;;;;;10408305;28;20408;-53
2024/03/09 17:01:56;;;;;;;1.23;1.13;;;;;;;;;;10408567;28;20034;-56
2024/03/09 17:06:57;;;;;;;2.40;1.30;;;;;;;;;;10424801;23;20049;-58
2024/03/09 17:11:58;;;;;;;2.00;1.30;;;;;;;;;;10413792;28;20025;-57
2024/03/09 17:16:59;;;;;;;1.38;1.27;;;;;;;;;;10408002;28;20045;-58
2024/03/09 17:22:02;;;;;;;2.33;1.30;;;;;;;;;;10407960;28;20124;-58
2024/03/09 17:27:03;;;;;;;3.10;1.20;;;;;;;;;;10408417;28;20100;-58
2024/03/09 17:32:09;;;;;;;1.17;1.10;;;;;;;;;;10411510;28;20025;-58
2024/03/09 17:37:10;;;;;;;1.63;1.30;;;;;;;;;;10416513;28;20029;-57
2024/03/09 17:42:14;;;;;;;3.30;1.38;;;;;;;;;;10415745;28;20386;-58
2024/03/09 17:47:15;;;;;;;0.93;0.93;;;;;;;;;;10415740;28;20397;-57
2024/03/09 17:52:15;;;;;;;1.00;1.00;;;;;;;;;;10415003;28;20036;-58
2024/03/09 17:57:16;;;;;;;1.10;1.00;;;;;;;;;;10414084;28;20025;-58
2024/03/09 18:02:17;;;;;;;1.10;1.00;;;;;;;;;;10414855;28;20503;-58
2024/03/09 18:07:17;;;;;;;1.10;1.10;;;;;;;;;;10414654;28;20615;-58
2024/03/09 18:12:18;;;;;;;1.20;1.10;;;;;;;;;;10414477;28;20149;-57
2024/03/09 18:17:19;;;;;;;1.23;1.10;;;;;;;;;;10414855;28;20026;-58
2024/03/09 18:22:21;;;;;;;1.25;1.15;;;;;;;;;;10414193;28;20488;-58
2024/03/09 18:27:21;;;;;;;1.40;1.30;;;;;;;;;;10414141;28;20474;-57
2024/03/09 18:32:22;;;;;;;9.57;1.27;;;;;;;;;;10414042;28;20076;-57
2024/03/09 18:37:22;;;;;;;3.33;1.10;;;;;;;;;;10412296;28;20030;-58
2024/03/09 18:42:27;;;;;;;1.10;1.00;;;;;;;;;;10411840;28;20029;-57
2024/03/09 18:47:28;;;;;;;2.38;1.30;;;;;;;;;;10413598;28;20033;-57
2024/03/09 18:52:28;;;;;;;1.65;1.30;;;;;;;;;;10413233;28;20040;-57
2024/03/09 18:57:29;;;;;;;1.23;1.13;;;;;;;;;;10413003;28;20034;-57
2024/03/09 19:02:30;;;;;;;4.82;2.10;;;;;;;;;;10413061;28;20025;-58
2024/03/09 19:07:33;;;;;;;1.50;1.40;;;;;;;;;;10412601;28;20417;-58
2024/03/09 19:12:34;;;;;;;1.40;1.30;;;;;;;;;;10413103;28;20030;-58
2024/03/09 19:17:35;;;;;;;1.55;1.25;;;;;;;;;;10411204;28;20427;-58
2024/03/09 19:22:38;;;;;;;1.67;1.58;;;;;;;;;;10411720;28;20121;-57
2024/03/09 19:27:40;;;;;;;1.63;1.50;;;;;;;;;;10411711;28;20639;-58
2024/03/09 19:32:45;;;;;;;2.03;1.50;;;;;;;;;;10411840;28;20036;-58
2024/03/09 19:37:45;;;;;;;2.63;1.33;;;;;;;;;;10411790;28;20052;-58
2024/03/09 19:42:48;;;;;;;1.40;1.30;;;;;;;;;;10410963;28;20080;-57
2024/03/09 19:47:53;;;;;;;1.40;1.30;;;;;;;;;;10409489;28;20032;-57
2024/03/09 19:52:54;;;;;;;1.30;1.20;;;;;;;;;;10409403;28;20028;-57
2024/03/09 19:57:54;;;;;;;1.83;1.50;;;;;;;;;;10410206;28;20055;-58
2024/03/09 20:02:56;;;;;;;3.17;1.27;;;;;;;;;;10409685;28;20118;-58
2024/03/09 20:07:58;;;;;;;1.40;1.30;;;;;;;;;;10410260;28;20042;-58
2024/03/09 20:12:59;;;;;;;2.30;1.40;;;;;;;;;;10410629;28;20472;-57
2024/03/09 20:18:00;;;;;;;1.42;1.33;;;;;;;;;;10409966;28;20488;-58
2024/03/09 20:23:03;;;;;;;1.40;1.30;;;;;;;;;;10408237;28;20036;-57
2024/03/09 20:28:06;;;;;;;1.40;1.30;;;;;;;;;;10409909;28;20109;-58
2024/03/09 20:33:06;;;;;;;1.52;1.40;;;;;;;;;;10410121;28;20038;-58
2024/03/09 20:38:07;;;;;;;1.30;1.20;;;;;;;;;;10409313;28;20381;-58
2024/03/09 20:43:08;;;;;;;2.75;1.38;;;;;;;;;;10408990;28;20432;-57
2024/03/09 20:48:09;;;;;;;1.35;1.25;;;;;;;;;;10409522;28;20041;-58
2024/03/09 20:53:19;;;;;;;1.40;1.30;;;;;;;;;;10408726;28;20029;-57
2024/03/09 20:58:20;;;;;;;1.38;1.27;;;;;;;;;;10409230;28;20030;-58
2024/03/09 21:03:20;;;;;;;1.33;1.23;;;;;;;;;;10408366;28;20025;-58
2024/03/09 21:08:21;;;;;;;1.40;1.30;;;;;;;;;;10407636;28;20041;-57
2024/03/09 21:13:23;;;;;;;3.55;1.20;;;;;;;;;;10408597;28;20026;-57
2024/03/09 21:18:25;;;;;;;1.35;1.20;;;;;;;;;;10408419;28;20026;-58
2024/03/09 21:23:25;;;;;;;2.42;1.50;;;;;;;;;;10408374;28;20041;-57
2024/03/09 21:28:26;;;;;;;1.40;1.30;;;;;;;;;;10408167;28;20448;-57
2024/03/09 21:33:26;;;;;;;1.45;1.35;;;;;;;;;;10407726;28;20029;-58
2024/03/09 21:38:27;;;;;;;3.17;1.65;;;;;;;;;;10407166;28;20087;-58
2024/03/09 21:43:27;;;;;;;2.17;1.73;;;;;;;;;;10407279;28;20034;-57
2024/03/09 21:48:28;;;;;;;3.10;1.70;;;;;;;;;;10407860;28;20021;-58
2024/03/09 21:53:29;;;;;;;2.17;1.73;;;;;;;;;;10407338;28;20029;-57
2024/03/09 21:58:30;;;;;;;3.33;1.80;;;;;;;;;;10407174;28;20113;-58
2024/03/09 22:03:31;;;;;;;3.28;2.00;;;;;;;;;;10406928;28;20112;-58
2024/03/09 22:08:33;;;;;;;2.38;1.80;;;;;;;;;;10405754;28;20057;-58
2024/03/09 22:13:33;;;;;;;3.10;1.90;;;;;;;;;;10406381;28;20503;-57
2024/03/09 22:18:34;;;;;;;2.00;1.80;;;;;;;;;;10411420;28;20018;-58
2024/03/09 22:23:34;;;;;;;2.30;1.58;;;;;;;;;;10414590;28;20061;-58
2024/03/09 22:28:35;;;;;;;2.90;1.73;;;;;;;;;;10414666;28;20021;-58
2024/03/09 22:33:36;;;;;;;2.83;1.77;;;;;;;;;;10414170;28;20461;-58
2024/03/09 22:38:36;;;;;;;3.80;1.88;;;;;;;;;;10413433;28;20018;-58
2024/03/09 22:43:37;;;;;;;4.10;2.28;;;;;;;;;;10413858;28;20033;-58
2024/03/09 22:48:37;;;;;;;4.18;2.10;;;;;;;;;;10413919;28;20029;-58
2024/03/09 22:53:40;;;;;;;1.95;1.70;;;;;;;;;;10412081;28;20033;-58
2024/03/09 22:58:41;;;;;;;2.70;1.98;;;;;;;;;;10412762;28;20098;-58
2024/03/09 23:03:45;;;;;;;12.23;2.67;;;;;;;;;;10412894;28;20021;-58
2024/03/09 23:08:46;;;;;;;8.85;2.60;;;;;;;;;;10411887;28;20295;-59
2024/03/09 23:13:48;;;;;;;4.45;2.30;;;;;;;;;;10412568;28;20056;-58
2024/03/09 23:18:48;;;;;;;5.53;2.00;;;;;;;;;;10411163;28;20032;-58
2024/03/09 23:23:49;;;;;;;5.57;2.30;;;;;;;;;;10409307;28;20347;-58
2024/03/09 23:28:50;;;;;;;4.53;2.05;;;;;;;;;;10409752;28;20025;-58
2024/03/09 23:33:50;;;;;;;4.80;2.80;;;;;;;;;;10410519;28;20029;-57
2024/03/09 23:38:51;;;;;;;2.95;2.10;;;;;;;;;;10411240;28;20029;-59
2024/03/09 23:43:53;;;;;;;2.30;2.00;;;;;;;;;;10411272;28;20111;-58
2024/03/09 23:48:55;;;;;;;3.15;2.10;;;;;;;;;;10411004;28;20018;-58
2024/03/09 23:53:55;;;;;;;3.20;1.92;;;;;;;;;;10410768;28;20104;-58
2024/03/09 23:58:56;;;;;;;4.75;2.33;;;;;;;;;;10410587;28;20389;-58
